createdAt,value
2018-12-26T00:01:09.412Z,16.67
2018-12-26T00:03:38.650Z,18.43
2018-12-26T00:06:07.582Z,16.57
2018-12-26T00:08:37.303Z,15.43
2018-12-26T00:11:06.442Z,19.00
2018-12-26T00:13:35.830Z,16.03
2018-12-26T00:16:05.119Z,16.13
2018-12-26T00:18:34.045Z,15.30
2018-12-26T00:21:03.043Z,18.30
2018-12-26T00:23:32.696Z,17.07
2018-12-26T00:26:02.103Z,15.67
2018-12-26T00:28:31.632Z,17.00
2018-12-26T00:31:00.496Z,17.83
2018-12-26T00:33:29.728Z,17.00
2018-12-26T00:35:58.879Z,22.57
2018-12-26T00:38:27.710Z,15.67
2018-12-26T00:40:56.875Z,17.00
2018-12-26T00:43:25.714Z,15.67
2018-12-26T00:45:55.248Z,15.30
2018-12-26T00:48:24.651Z,18.40
2018-12-26T00:50:53.947Z,15.57
2018-12-26T00:53:23.051Z,15.83
2018-12-26T00:55:52.544Z,16.73
2018-12-26T00:58:21.744Z,15.07
2018-12-26T01:00:50.869Z,16.27
2018-12-26T01:03:19.969Z,15.23
2018-12-26T01:05:48.805Z,16.60
2018-12-26T01:08:18.215Z,17.47
2018-12-26T01:10:47.339Z,19.43
2018-12-26T01:13:16.725Z,17.00
2018-12-26T01:15:45.997Z,16.00
2018-12-26T01:18:15.161Z,21.40
2018-12-26T01:20:44.371Z,21.20
2018-12-26T01:23:13.843Z,20.80
2018-12-26T01:25:43.227Z,20.10
2018-12-26T01:28:12.858Z,22.83
2018-12-26T01:30:41.779Z,18.97
2018-12-26T01:33:10.714Z,17.97
2018-12-26T01:35:40.067Z,19.30
2018-12-26T01:38:09.258Z,20.13
2018-12-26T01:40:38.417Z,20.37
2018-12-26T01:43:07.643Z,21.57
2018-12-26T01:45:37.351Z,18.87
2018-12-26T01:48:06.840Z,17.73
2018-12-26T01:50:36.286Z,16.73
2018-12-26T01:53:06.115Z,16.97
2018-12-26T01:55:35.523Z,19.20
2018-12-26T01:58:04.904Z,19.07
2018-12-26T02:00:34.444Z,17.93
2018-12-26T02:03:03.647Z,17.87
2018-12-26T02:05:32.960Z,19.10
2018-12-26T02:08:02.667Z,19.13
2018-12-26T02:10:31.590Z,16.17
2018-12-26T02:13:00.764Z,18.70
2018-12-26T02:15:30.272Z,17.53
2018-12-26T02:17:59.684Z,17.60
2018-12-26T02:20:29.159Z,18.23
2018-12-26T02:22:58.704Z,18.80
2018-12-26T02:25:28.152Z,16.87
2018-12-26T02:27:57.551Z,18.50
2018-12-26T02:30:26.952Z,16.67
2018-12-26T02:32:56.669Z,18.43
2018-12-26T02:35:25.852Z,18.20
2018-12-26T02:37:55.043Z,20.07
2018-12-26T02:40:24.424Z,17.63
2018-12-26T02:42:54.324Z,20.50
2018-12-26T02:45:24.002Z,20.13
2018-12-26T02:47:53.424Z,17.57
2018-12-26T02:50:23.135Z,18.60
2018-12-26T02:52:53.061Z,20.17
2018-12-26T02:55:22.318Z,16.87
2018-12-26T02:57:52.141Z,17.57
2018-12-26T03:00:21.042Z,17.87
2018-12-26T03:02:50.537Z,21.00
2018-12-26T03:05:20.131Z,18.47
2018-12-26T03:07:49.319Z,18.00
2018-12-26T03:10:18.544Z,17.53
2018-12-26T03:12:48.409Z,15.83
2018-12-26T03:15:17.486Z,17.53
2018-12-26T03:17:46.496Z,17.10
2018-12-26T03:20:15.689Z,19.57
2018-12-26T03:22:45.355Z,19.07
2018-12-26T03:25:14.920Z,18.10
2018-12-26T03:27:45.026Z,18.03
2018-12-26T03:30:14.388Z,19.43
2018-12-26T03:32:44.241Z,16.37
2018-12-26T03:35:13.435Z,17.50
2018-12-26T03:37:42.652Z,17.30
2018-12-26T03:40:11.947Z,16.63
2018-12-26T03:42:41.723Z,17.60
2018-12-26T03:45:11.003Z,18.87
2018-12-26T03:47:40.976Z,18.20
2018-12-26T03:50:10.231Z,15.90
2018-12-26T03:52:40.266Z,17.10
2018-12-26T03:55:09.819Z,20.83
2018-12-26T03:57:39.321Z,17.80
2018-12-26T04:00:09.039Z,17.93
2018-12-26T04:02:38.715Z,18.40
2018-12-26T04:05:07.989Z,18.57
2018-12-26T04:07:38.059Z,18.60
2018-12-26T04:10:07.319Z,17.77
2018-12-26T04:12:36.455Z,20.60
2018-12-26T04:15:05.644Z,17.83
2018-12-26T04:17:34.870Z,22.60
2018-12-26T04:20:04.508Z,20.73
2018-12-26T04:22:33.560Z,22.27
2018-12-26T04:25:03.255Z,23.73
2018-12-26T04:27:32.593Z,22.80
2018-12-26T04:30:01.957Z,23.67
2018-12-26T04:32:31.135Z,22.77
2018-12-26T04:35:00.359Z,24.03
2018-12-26T04:37:29.650Z,26.00
2018-12-26T04:39:59.028Z,21.13
2018-12-26T04:42:28.494Z,20.50
2018-12-26T04:44:57.419Z,22.57
2018-12-26T04:47:26.458Z,22.73
2018-12-26T04:49:55.631Z,21.80
2018-12-26T04:52:24.889Z,24.00
2018-12-26T04:54:53.771Z,21.43
2018-12-26T04:57:24.820Z,21.37
2018-12-26T04:59:54.100Z,22.07
2018-12-26T05:02:23.910Z,21.13
2018-12-26T05:04:53.580Z,20.20
2018-12-26T05:07:22.467Z,22.27
2018-12-26T05:09:51.342Z,22.40
2018-12-26T05:12:20.468Z,21.73
2018-12-26T05:14:50.005Z,20.93
2018-12-26T05:17:19.367Z,24.77
2018-12-26T05:19:48.839Z,22.53
2018-12-26T05:22:18.308Z,21.40
2018-12-26T05:24:47.744Z,22.20
2018-12-26T05:27:17.042Z,21.47
2018-12-26T05:29:46.283Z,21.30
2018-12-26T05:32:15.579Z,22.93
2018-12-26T05:34:44.494Z,22.63
2018-12-26T05:37:14.108Z,20.13
2018-12-26T05:39:43.350Z,20.47
2018-12-26T05:42:12.627Z,23.17
2018-12-26T05:44:41.808Z,18.23
2018-12-26T05:47:11.255Z,18.93
2018-12-26T05:49:40.602Z,20.37
2018-12-26T05:52:10.294Z,19.17
2018-12-26T05:54:39.237Z,19.67
2018-12-26T05:57:08.482Z,17.17
2018-12-26T05:59:38.059Z,18.37
2018-12-26T06:02:07.254Z,18.97
2018-12-26T06:04:36.615Z,20.60
2018-12-26T06:07:06.115Z,20.30
2018-12-26T06:09:35.859Z,17.13
2018-12-26T06:12:05.799Z,19.57
2018-12-26T06:14:34.756Z,23.23
2018-12-26T06:17:03.997Z,24.73
2018-12-26T06:19:33.027Z,21.67
2018-12-26T06:22:02.478Z,19.93
2018-12-26T06:24:32.052Z,22.40
2018-12-26T06:27:00.891Z,19.27
2018-12-26T06:29:30.351Z,20.97
2018-12-26T06:32:00.067Z,21.07
2018-12-26T06:34:28.923Z,17.60
2018-12-26T06:36:58.070Z,20.27
2018-12-26T06:39:27.232Z,20.73
2018-12-26T06:41:56.852Z,23.30
2018-12-26T06:44:26.059Z,19.90
2018-12-26T06:46:55.687Z,18.60
2018-12-26T06:49:25.433Z,22.27
2018-12-26T06:51:54.633Z,21.63
2018-12-26T06:54:24.551Z,21.70
2018-12-26T06:56:54.519Z,22.93
2018-12-26T06:59:23.822Z,21.73
2018-12-26T07:01:57.008Z,26.17
2018-12-26T07:04:27.099Z,24.37
2018-12-26T07:06:56.788Z,20.67
2018-12-26T07:09:25.995Z,23.10
2018-12-26T07:11:55.374Z,23.07
2018-12-26T07:14:25.106Z,21.67
2018-12-26T07:16:54.556Z,20.90
2018-12-26T07:19:23.779Z,24.90
2018-12-26T07:21:53.415Z,24.23
2018-12-26T07:24:22.987Z,21.97
2018-12-26T07:26:52.752Z,23.87
2018-12-26T07:29:22.320Z,21.87
2018-12-26T07:31:51.718Z,26.37
2018-12-26T07:34:20.615Z,22.70
2018-12-26T07:36:49.843Z,26.97
2018-12-26T07:39:19.003Z,25.10
2018-12-26T07:41:48.491Z,26.07
2018-12-26T07:44:17.667Z,27.10
2018-12-26T07:46:47.074Z,23.03
2018-12-26T07:49:16.232Z,30.73
2018-12-26T07:51:46.055Z,20.13
2018-12-26T07:54:15.195Z,22.17
2018-12-26T07:56:44.553Z,26.80
2018-12-26T07:59:13.398Z,23.40
2018-12-26T08:01:42.884Z,26.33
2018-12-26T08:04:12.318Z,27.77
2018-12-26T08:06:41.519Z,26.13
2018-12-26T08:09:11.183Z,23.07
2018-12-26T08:11:40.638Z,22.87
2018-12-26T08:14:09.908Z,30.27
2018-12-26T08:16:39.083Z,30.73
2018-12-26T08:19:08.712Z,33.23
2018-12-26T08:21:38.628Z,33.60
2018-12-26T08:24:07.889Z,42.37
2018-12-26T08:26:37.296Z,49.00
2018-12-26T08:29:06.651Z,43.23
2018-12-26T08:31:36.088Z,39.90
2018-12-26T08:34:05.491Z,37.63
2018-12-26T08:36:34.910Z,37.30
2018-12-26T08:39:05.366Z,37.90
2018-12-26T08:41:34.875Z,34.57
2018-12-26T08:44:03.766Z,34.80
2018-12-26T08:46:33.563Z,32.03
2018-12-26T08:49:03.024Z,38.30
2018-12-26T08:51:32.933Z,39.07
2018-12-26T08:54:02.460Z,38.80
2018-12-26T08:56:31.754Z,46.33
2018-12-26T08:59:01.121Z,38.03
2018-12-26T09:01:30.644Z,36.50
2018-12-26T09:04:00.338Z,35.20
2018-12-26T09:06:29.731Z,41.57
2018-12-26T09:08:59.091Z,37.87
2018-12-26T09:11:28.366Z,32.20
2018-12-26T09:13:57.970Z,32.43
2018-12-26T09:16:27.186Z,31.07
2018-12-26T09:18:56.379Z,35.27
2018-12-26T09:21:26.161Z,33.47
2018-12-26T09:23:55.364Z,35.20
2018-12-26T09:26:24.574Z,33.47
2018-12-26T09:28:53.682Z,31.00
2018-12-26T09:31:23.061Z,39.00
2018-12-26T09:33:52.419Z,32.47
2018-12-26T09:36:21.248Z,28.33
2018-12-26T09:38:50.710Z,32.20
2018-12-26T09:41:20.339Z,37.23
2018-12-26T09:43:49.882Z,36.73
2018-12-26T09:46:19.261Z,27.37
2018-12-26T09:48:48.359Z,22.87
2018-12-26T09:51:18.099Z,28.07
2018-12-26T09:53:47.211Z,26.30
2018-12-26T09:56:16.434Z,25.80
2018-12-26T09:58:52.411Z,26.70
2018-12-26T10:01:17.151Z,25.47
2018-12-26T10:03:46.570Z,25.07
2018-12-26T10:06:16.358Z,21.70
2018-12-26T10:08:45.156Z,19.27
2018-12-26T10:11:14.818Z,24.90
2018-12-26T10:13:44.743Z,23.87
2018-12-26T10:16:14.119Z,21.67
2018-12-26T10:18:42.920Z,22.07
2018-12-26T10:21:12.323Z,24.80
2018-12-26T10:23:42.341Z,21.67
2018-12-26T10:26:11.232Z,21.67
2018-12-26T10:28:40.423Z,20.77
2018-12-26T10:31:09.987Z,22.93
2018-12-26T10:33:39.815Z,20.63
2018-12-26T10:36:08.951Z,27.47
2018-12-26T10:38:38.803Z,20.73
2018-12-26T10:41:08.752Z,20.40
2018-12-26T10:43:37.861Z,20.57
2018-12-26T10:46:07.611Z,17.30
2018-12-26T10:48:36.967Z,16.77
2018-12-26T10:51:06.090Z,15.93
2018-12-26T10:53:35.187Z,17.77
2018-12-26T10:56:04.089Z,18.13
2018-12-26T10:58:33.636Z,15.57
2018-12-26T11:01:02.871Z,17.97
2018-12-26T11:03:31.967Z,15.77
2018-12-26T11:06:01.098Z,16.70
2018-12-26T11:08:30.438Z,13.37
2018-12-26T11:11:00.067Z,15.30
2018-12-26T11:13:29.759Z,16.53
2018-12-26T11:15:59.244Z,14.30
2018-12-26T11:18:29.493Z,15.53
2018-12-26T11:20:58.946Z,14.57
2018-12-26T11:23:28.035Z,16.10
2018-12-26T11:25:57.338Z,12.60
2018-12-26T11:28:26.705Z,12.10
2018-12-26T11:30:55.603Z,13.67
2018-12-26T11:33:25.146Z,12.93
2018-12-26T11:35:54.358Z,11.83
2018-12-26T11:38:23.439Z,12.63
2018-12-26T11:40:53.131Z,11.50
2018-12-26T11:43:22.591Z,12.10
2018-12-26T11:45:51.802Z,12.17
2018-12-26T11:48:20.992Z,8.63
2018-12-26T11:50:50.639Z,11.30
2018-12-26T11:53:19.999Z,10.67
2018-12-26T11:55:49.206Z,9.73
2018-12-26T11:58:18.574Z,12.13
2018-12-26T12:00:47.400Z,11.00
2018-12-26T12:03:16.936Z,12.40
2018-12-26T12:05:46.135Z,15.33
2018-12-26T12:08:15.638Z,11.53
2018-12-26T12:10:44.808Z,10.80
2018-12-26T12:13:14.107Z,10.30
2018-12-26T12:15:43.627Z,11.33
2018-12-26T12:18:13.052Z,14.43
2018-12-26T12:20:42.678Z,12.47
2018-12-26T12:23:11.626Z,11.90
2018-12-26T12:25:40.797Z,23.40
2018-12-26T12:28:10.152Z,13.33
2018-12-26T12:30:39.174Z,13.07
2018-12-26T12:33:08.083Z,11.70
2018-12-26T12:35:37.543Z,15.53
2018-12-26T12:38:06.792Z,15.93
2018-12-26T12:40:36.219Z,17.20
2018-12-26T12:43:05.780Z,19.77
2018-12-26T12:45:34.986Z,13.63
2018-12-26T12:48:04.205Z,14.63
2018-12-26T12:50:33.239Z,9.47
2018-12-26T12:53:02.403Z,7.77
2018-12-26T12:55:31.569Z,6.27
2018-12-26T12:58:00.761Z,9.00
2018-12-26T13:00:29.759Z,9.40
2018-12-26T13:03:00.521Z,8.47
2018-12-26T13:05:30.026Z,8.93
2018-12-26T13:07:59.122Z,8.20
2018-12-26T13:10:28.490Z,8.77
2018-12-26T13:12:57.809Z,6.93
2018-12-26T13:15:26.935Z,14.57
2018-12-26T13:17:55.740Z,11.90
2018-12-26T13:20:24.603Z,52.13
2018-12-26T13:22:53.514Z,114.57
2018-12-26T13:25:23.088Z,19.37
2018-12-26T13:27:52.685Z,8.80
2018-12-26T13:30:21.956Z,7.90
2018-12-26T13:32:51.084Z,6.40
2018-12-26T13:35:20.068Z,11.17
2018-12-26T13:37:49.658Z,8.60
2018-12-26T13:40:21.062Z,12.57
2018-12-26T13:42:49.690Z,17.17
2018-12-26T13:45:18.816Z,7.93
2018-12-26T13:47:48.368Z,8.57
2018-12-26T13:50:17.954Z,23.90
2018-12-26T13:52:47.261Z,6.33
2018-12-26T13:55:16.832Z,7.57
2018-12-26T13:57:46.406Z,6.20
2018-12-26T14:00:15.533Z,9.57
2018-12-26T14:02:44.845Z,5.27
2018-12-26T14:05:13.602Z,7.13
2018-12-26T14:07:42.716Z,6.77
2018-12-26T14:10:11.852Z,7.43
2018-12-26T14:12:40.912Z,7.90
2018-12-26T14:15:10.819Z,6.13
2018-12-26T14:17:40.771Z,8.27
2018-12-26T14:20:10.263Z,8.53
2018-12-26T14:22:39.903Z,8.83
2018-12-26T14:25:09.445Z,6.70
2018-12-26T14:27:38.906Z,7.07
2018-12-26T14:30:11.260Z,7.33
2018-12-26T14:32:40.131Z,9.47
2018-12-26T14:35:09.551Z,7.57
2018-12-26T14:37:38.932Z,10.00
2018-12-26T14:40:07.867Z,7.73
2018-12-26T14:42:37.282Z,6.40
2018-12-26T14:45:06.339Z,7.73
2018-12-26T14:47:35.979Z,6.37
2018-12-26T14:50:06.300Z,6.10
2018-12-26T14:52:35.714Z,5.90
2018-12-26T14:55:04.747Z,7.23
2018-12-26T14:57:34.128Z,5.53
2018-12-26T15:00:02.928Z,6.13
2018-12-26T15:02:32.395Z,5.80
2018-12-26T15:05:02.101Z,6.10
2018-12-26T15:07:32.312Z,8.40
2018-12-26T15:10:01.474Z,7.40
2018-12-26T15:12:30.947Z,5.93
2018-12-26T15:15:00.351Z,7.17
2018-12-26T15:17:30.020Z,7.10
2018-12-26T15:19:59.176Z,6.40
2018-12-26T15:22:28.350Z,7.43
2018-12-26T15:24:57.711Z,8.57
2018-12-26T15:27:26.831Z,9.10
2018-12-26T15:29:55.723Z,8.33
2018-12-26T15:32:25.375Z,8.57
2018-12-26T15:34:55.003Z,8.10
2018-12-26T15:37:23.810Z,8.27
2018-12-26T15:39:53.471Z,8.00
2018-12-26T15:42:22.912Z,7.73
2018-12-26T15:44:51.711Z,8.70
2018-12-26T15:47:20.991Z,11.60
2018-12-26T15:49:50.111Z,8.30
2018-12-26T15:52:19.208Z,9.80
2018-12-26T15:54:50.036Z,11.27
2018-12-26T15:57:19.692Z,10.30
2018-12-26T15:59:48.954Z,12.27
2018-12-26T16:02:18.039Z,8.20
2018-12-26T16:04:47.526Z,9.00
2018-12-26T16:07:16.710Z,10.03
2018-12-26T16:09:46.156Z,9.30
2018-12-26T16:12:15.815Z,9.73
2018-12-26T16:14:45.270Z,9.67
2018-12-26T16:17:14.884Z,10.13
2018-12-26T16:19:44.082Z,9.57
2018-12-26T16:22:13.715Z,9.73
2018-12-26T16:24:42.507Z,9.50
2018-12-26T16:27:11.760Z,9.63
2018-12-26T16:29:40.745Z,13.33
2018-12-26T16:32:10.185Z,14.47
2018-12-26T16:34:39.705Z,12.10
2018-12-26T16:37:09.362Z,12.43
2018-12-26T16:39:38.624Z,10.90
2018-12-26T16:42:07.672Z,12.33
2018-12-26T16:44:37.200Z,13.10
2018-12-26T16:47:06.041Z,14.60
2018-12-26T16:49:35.104Z,10.90
2018-12-26T16:52:04.288Z,16.00
2018-12-26T16:54:33.573Z,18.03
2018-12-26T16:57:02.947Z,11.53
2018-12-26T16:59:32.136Z,13.83
2018-12-26T17:02:01.707Z,13.43
2018-12-26T17:04:30.783Z,12.53
2018-12-26T17:06:59.931Z,16.07
2018-12-26T17:09:29.217Z,14.80
2018-12-26T17:11:58.766Z,14.97
2018-12-26T17:14:28.532Z,17.27
2018-12-26T17:16:58.248Z,16.40
2018-12-26T17:19:27.519Z,16.37
2018-12-26T17:21:56.887Z,18.37
2018-12-26T17:24:26.146Z,18.43
2018-12-26T17:26:56.111Z,15.43
2018-12-26T17:29:25.384Z,17.47
2018-12-26T17:31:54.648Z,19.50
2018-12-26T17:34:23.940Z,16.93
2018-12-26T17:36:53.223Z,18.47
2018-12-26T17:39:22.768Z,18.97
2018-12-26T17:41:52.064Z,19.10
2018-12-26T17:44:20.859Z,18.57
2018-12-26T17:46:49.922Z,19.37
2018-12-26T17:49:18.989Z,19.73
2018-12-26T17:51:47.710Z,18.47
2018-12-26T17:54:53.537Z,22.50
2018-12-26T17:57:27.483Z,19.70
2018-12-26T18:00:30.485Z,21.97
2018-12-26T18:02:59.776Z,19.30
2018-12-26T18:05:28.583Z,22.53
2018-12-26T18:07:57.607Z,17.50
2018-12-26T18:10:26.375Z,18.20
2018-12-26T18:12:55.716Z,20.77
2018-12-26T18:15:25.092Z,22.20
2018-12-26T18:17:54.383Z,21.80
2018-12-26T18:20:23.688Z,22.07
2018-12-26T18:22:53.025Z,25.17
2018-12-26T18:25:22.095Z,21.37
2018-12-26T18:27:51.739Z,23.80
2018-12-26T18:30:21.266Z,26.07
2018-12-26T18:32:50.510Z,23.37
2018-12-26T18:35:19.812Z,25.47
2018-12-26T18:37:49.404Z,25.60
2018-12-26T18:40:18.363Z,23.60
2018-12-26T18:42:49.285Z,26.73
2018-12-26T18:45:18.072Z,24.43
2018-12-26T18:47:47.247Z,25.47
2018-12-26T18:50:16.392Z,31.17
2018-12-26T18:52:45.426Z,25.73
2018-12-26T18:55:15.709Z,27.50
2018-12-26T18:57:44.913Z,24.43
2018-12-26T19:00:14.244Z,33.10
2018-12-26T19:02:43.884Z,30.57
2018-12-26T19:05:13.332Z,31.63
2018-12-26T19:07:42.591Z,28.23
2018-12-26T19:10:11.770Z,28.57
2018-12-26T19:12:41.294Z,29.10
2018-12-26T19:15:11.260Z,30.73
2018-12-26T19:17:40.587Z,30.10
2018-12-26T19:20:11.129Z,32.07
2018-12-26T19:22:40.635Z,32.40
2018-12-26T19:25:10.739Z,33.70
2018-12-26T19:27:39.832Z,31.80
2018-12-26T19:30:11.668Z,35.70
2018-12-26T19:32:40.805Z,33.87
2018-12-26T19:35:15.813Z,31.13
2018-12-26T19:37:44.918Z,31.73
2018-12-26T19:40:14.150Z,33.17
2018-12-26T19:42:43.188Z,34.43
2018-12-26T19:45:12.516Z,35.87
2018-12-26T19:47:41.796Z,31.00
2018-12-26T19:50:10.828Z,35.53
2018-12-26T19:52:40.335Z,38.80
2018-12-26T19:55:09.963Z,39.30
2018-12-26T19:57:39.299Z,35.03
2018-12-26T20:00:09.592Z,33.73
2018-12-26T20:02:38.378Z,29.33
2018-12-26T20:05:07.455Z,31.40
2018-12-26T20:07:36.607Z,32.53
2018-12-26T20:10:06.741Z,29.40
2018-12-26T20:12:35.867Z,31.27
2018-12-26T20:15:05.775Z,35.83
2018-12-26T20:17:35.207Z,36.33
2018-12-26T20:20:04.743Z,33.43
2018-12-26T20:22:34.930Z,35.23
2018-12-26T20:25:04.274Z,30.67
2018-12-26T20:27:33.111Z,30.70
2018-12-26T20:30:02.311Z,28.77
2018-12-26T20:32:31.459Z,41.10
2018-12-26T20:35:00.907Z,35.03
2018-12-26T20:37:29.999Z,32.03
2018-12-26T20:39:59.267Z,43.00
2018-12-26T20:42:28.916Z,41.00
2018-12-26T20:44:57.894Z,36.07
2018-12-26T20:47:27.275Z,36.07
2018-12-26T20:49:56.234Z,38.83
2018-12-26T20:52:25.530Z,38.43
2018-12-26T20:54:54.748Z,41.33
2018-12-26T20:57:23.565Z,40.20
2018-12-26T20:59:53.207Z,45.03
2018-12-26T21:02:22.755Z,36.50
2018-12-26T21:04:51.645Z,45.03
2018-12-26T21:07:20.789Z,43.97
2018-12-26T21:09:49.959Z,39.67
2018-12-26T21:12:18.802Z,41.20
2018-12-26T21:14:48.155Z,42.83
2018-12-26T21:17:17.450Z,42.50
2018-12-26T21:19:47.762Z,49.17
2018-12-26T21:22:16.984Z,52.77
2018-12-26T21:24:47.137Z,45.90
2018-12-26T21:27:16.275Z,50.63
2018-12-26T21:29:45.608Z,58.10
2018-12-26T21:32:14.938Z,44.97
2018-12-26T21:34:44.831Z,39.90
2018-12-26T21:37:13.793Z,55.40
2018-12-26T21:39:43.170Z,53.10
2018-12-26T21:42:11.988Z,46.80
2018-12-26T21:44:41.182Z,47.73
2018-12-26T21:47:10.731Z,43.00
2018-12-26T21:49:40.300Z,48.57
2018-12-26T21:52:10.388Z,38.43
2018-12-26T21:54:39.318Z,40.50
2018-12-26T21:57:09.151Z,37.97
2018-12-26T21:59:38.562Z,36.03
2018-12-26T22:02:08.090Z,38.70
2018-12-26T22:04:37.016Z,38.07
2018-12-26T22:07:06.274Z,36.90
2018-12-26T22:09:35.362Z,34.47
2018-12-26T22:12:04.361Z,40.23
2018-12-26T22:14:33.945Z,38.97
2018-12-26T22:17:02.896Z,37.80
2018-12-26T22:19:32.290Z,33.83
2018-12-26T22:22:01.375Z,31.53
2018-12-26T22:24:30.703Z,32.40
2018-12-26T22:26:59.826Z,35.00
2018-12-26T22:29:28.931Z,33.77
2018-12-26T22:31:58.413Z,34.03
2018-12-26T22:34:27.498Z,34.27
2018-12-26T22:36:56.674Z,33.50
2018-12-26T22:39:25.747Z,33.03
2018-12-26T22:41:55.126Z,32.37
2018-12-26T22:44:27.805Z,32.20
2018-12-26T22:46:55.326Z,32.77
2018-12-26T22:49:24.416Z,33.67
2018-12-26T22:51:53.537Z,31.50
2018-12-26T22:54:23.129Z,35.90
2018-12-26T22:56:53.388Z,32.50
2018-12-26T22:59:23.691Z,32.67
2018-12-26T23:01:52.886Z,31.83
2018-12-26T23:04:22.043Z,28.80
2018-12-26T23:06:51.615Z,29.70
2018-12-26T23:09:20.512Z,29.40
2018-12-26T23:11:49.406Z,32.77
2018-12-26T23:14:18.333Z,31.53
2018-12-26T23:16:47.555Z,31.63
2018-12-26T23:19:16.403Z,32.00
2018-12-26T23:21:45.707Z,28.90
2018-12-26T23:24:15.075Z,31.67
2018-12-26T23:26:44.278Z,30.27
2018-12-26T23:29:13.458Z,28.63
2018-12-26T23:31:42.575Z,26.13
2018-12-26T23:34:11.704Z,31.03
2018-12-26T23:36:41.502Z,30.47
2018-12-26T23:39:10.464Z,28.37
2018-12-26T23:41:39.871Z,29.13
2018-12-26T23:44:08.666Z,26.67
2018-12-26T23:46:37.509Z,28.63
2018-12-26T23:49:06.999Z,29.60
2018-12-26T23:51:36.429Z,32.20
2018-12-26T23:54:05.879Z,30.23
2018-12-26T23:56:35.242Z,29.13
2018-12-26T23:59:04.370Z,33.33
